createdAt,value
2022-10-28T00:00:52.127Z,1.60
2022-10-28T00:02:54.000Z,1.50
2022-10-28T00:04:55.854Z,1.77
2022-10-28T00:06:57.496Z,2.08
2022-10-28T00:08:59.456Z,2.38
2022-10-28T00:11:21.799Z,1.88
2022-10-28T00:13:23.420Z,2.60
2022-10-28T00:15:25.027Z,1.98
2022-10-28T00:17:26.628Z,2.05
2022-10-28T00:19:28.345Z,2.45
2022-10-28T00:21:32.279Z,2.22
2022-10-28T00:23:34.098Z,1.92
2022-10-28T00:25:35.726Z,2.15
2022-10-28T00:27:37.503Z,1.92
2022-10-28T00:29:39.141Z,1.98
2022-10-28T00:31:41.124Z,2.53
2022-10-28T00:33:42.996Z,1.33
2022-10-28T00:35:44.538Z,1.80
2022-10-28T00:37:46.149Z,2.13
2022-10-28T00:39:47.745Z,2.05
2022-10-28T00:41:51.462Z,2.13
2022-10-28T00:43:55.656Z,1.70
2022-10-28T00:45:57.249Z,2.50
2022-10-28T00:48:01.413Z,2.63
2022-10-28T00:50:41.640Z,1.90
2022-10-28T00:52:45.257Z,2.65
2022-10-28T00:54:46.971Z,2.17
2022-10-28T00:56:56.571Z,2.53
2022-10-28T00:59:00.272Z,2.33
2022-10-28T01:01:02.040Z,1.80
2022-10-28T01:03:04.080Z,2.60
2022-10-28T01:05:06.128Z,2.63
2022-10-28T01:07:08.078Z,2.92
2022-10-28T01:09:09.681Z,2.50
2022-10-28T01:11:17.403Z,2.90
2022-10-28T01:13:22.467Z,2.97
2022-10-28T01:15:34.061Z,2.15
2022-10-28T01:18:08.853Z,2.60
2022-10-28T01:20:22.539Z,2.13
2022-10-28T01:22:27.460Z,2.72
2022-10-28T01:24:54.833Z,2.53
2022-10-28T01:27:39.764Z,2.45
2022-10-28T01:30:07.156Z,3.15
2022-10-28T01:32:22.383Z,2.40
2022-10-28T01:34:26.802Z,2.22
2022-10-28T01:36:28.411Z,2.65
2022-10-28T01:38:36.569Z,2.88
2022-10-28T01:40:59.378Z,3.13
2022-10-28T01:43:09.442Z,2.70
2022-10-28T01:45:19.994Z,3.05
2022-10-28T01:47:33.008Z,2.60
2022-10-28T01:49:50.702Z,2.45
2022-10-28T01:51:55.447Z,2.58
2022-10-28T01:53:58.704Z,2.15
2022-10-28T01:56:05.983Z,3.75
2022-10-28T01:58:09.650Z,1.98
2022-10-28T02:00:11.910Z,2.47
2022-10-28T02:02:15.454Z,2.53
2022-10-28T02:04:17.085Z,2.17
2022-10-28T02:06:24.583Z,2.22
2022-10-28T02:08:40.988Z,3.15
2022-10-28T02:10:55.144Z,3.78
2022-10-28T02:12:57.619Z,2.80
2022-10-28T02:15:14.350Z,4.15
2022-10-28T02:17:32.016Z,2.80
2022-10-28T02:19:44.357Z,2.65
2022-10-28T02:22:04.029Z,2.50
2022-10-28T02:24:22.552Z,2.75
2022-10-28T02:26:29.918Z,3.03
2022-10-28T02:28:56.310Z,2.42
2022-10-28T02:31:02.420Z,3.28
2022-10-28T02:33:05.888Z,2.05
2022-10-28T02:35:13.157Z,2.67
2022-10-28T02:37:20.920Z,3.28
2022-10-28T02:39:34.833Z,3.03
2022-10-28T02:41:55.484Z,2.78
2022-10-28T02:44:00.750Z,2.42
2022-10-28T02:46:04.250Z,2.17
2022-10-28T02:48:09.854Z,2.40
2022-10-28T02:50:16.064Z,2.78
2022-10-28T02:52:18.508Z,2.63
2022-10-28T02:54:37.767Z,2.40
2022-10-28T02:56:49.661Z,3.20
2022-10-28T02:58:51.394Z,2.30
2022-10-28T03:00:56.150Z,2.83
2022-10-28T03:02:57.791Z,3.10
2022-10-28T03:04:59.466Z,2.83
2022-10-28T03:07:01.180Z,2.13
2022-10-28T03:09:02.831Z,2.42
2022-10-28T03:11:04.603Z,2.60
2022-10-28T03:13:06.182Z,2.47
2022-10-28T03:15:08.457Z,2.53
2022-10-28T03:17:10.142Z,1.92
2022-10-28T03:19:11.802Z,3.15
2022-10-28T03:21:13.407Z,2.35
2022-10-28T03:23:15.062Z,2.00
2022-10-28T03:25:16.749Z,3.30
2022-10-28T03:27:18.913Z,2.80
2022-10-28T03:29:21.107Z,2.22
2022-10-28T03:31:22.727Z,2.25
2022-10-28T03:33:24.333Z,2.17
2022-10-28T03:35:26.574Z,2.33
2022-10-28T03:37:28.184Z,2.25
2022-10-28T03:39:29.783Z,3.17
2022-10-28T03:41:31.454Z,4.00
2022-10-28T03:43:33.071Z,1.77
2022-10-28T03:45:34.775Z,2.35
2022-10-28T03:47:36.491Z,2.10
2022-10-28T03:49:38.134Z,2.35
2022-10-28T03:51:39.777Z,2.35
2022-10-28T03:53:41.477Z,1.95
2022-10-28T03:55:43.111Z,3.47
2022-10-28T03:57:44.737Z,3.28
2022-10-28T03:59:46.479Z,2.13
2022-10-28T04:01:48.307Z,2.13
2022-10-28T04:03:50.011Z,2.65
2022-10-28T04:05:51.775Z,2.20
2022-10-28T04:07:54.173Z,2.35
2022-10-28T04:09:55.831Z,2.50
2022-10-28T04:11:57.440Z,2.90
2022-10-28T04:13:59.073Z,2.85
2022-10-28T04:16:02.048Z,2.35
2022-10-28T04:18:04.097Z,2.30
2022-10-28T04:20:06.335Z,2.47
2022-10-28T04:22:09.210Z,2.10
2022-10-28T04:24:10.926Z,3.33
2022-10-28T04:26:12.603Z,2.00
2022-10-28T04:28:14.333Z,2.47
2022-10-28T04:30:16.062Z,2.03
2022-10-28T04:32:17.653Z,2.08
2022-10-28T04:34:19.342Z,2.63
2022-10-28T04:36:20.994Z,2.28
2022-10-28T04:40:24.829Z,2.10
2022-10-28T04:42:26.517Z,2.22
2022-10-28T04:44:28.121Z,2.50
2022-10-28T04:46:29.722Z,2.42
2022-10-28T04:48:31.996Z,2.10
2022-10-28T04:50:33.628Z,2.53
2022-10-28T04:52:35.333Z,2.45
2022-10-28T04:54:36.928Z,3.25
2022-10-28T04:56:38.559Z,2.70
2022-10-28T04:58:40.248Z,1.88
2022-10-28T05:00:42.069Z,2.65
2022-10-28T05:02:46.035Z,1.88
2022-10-28T05:04:47.992Z,2.28
2022-10-28T05:06:49.858Z,2.13
2022-10-28T05:08:51.489Z,2.60
2022-10-28T05:10:53.218Z,2.45
2022-10-28T05:12:57.847Z,2.20
2022-10-28T05:14:59.532Z,2.38
2022-10-28T05:17:01.248Z,2.10
2022-10-28T05:19:02.929Z,2.60
2022-10-28T05:21:04.714Z,2.50
2022-10-28T05:23:06.665Z,2.55
2022-10-28T05:25:08.495Z,1.85
2022-10-28T05:27:10.164Z,2.38
2022-10-28T05:29:11.755Z,2.40
2022-10-28T05:31:13.503Z,2.00
2022-10-28T05:33:15.137Z,1.90
2022-10-28T05:35:17.033Z,2.05
2022-10-28T05:37:18.685Z,2.97
2022-10-28T05:39:20.285Z,2.03
2022-10-28T05:41:23.339Z,1.88
2022-10-28T05:43:25.189Z,2.25
2022-10-28T05:45:27.225Z,2.33
2022-10-28T05:47:28.965Z,2.70
2022-10-28T05:49:30.731Z,2.45
2022-10-28T05:51:32.321Z,2.97
2022-10-28T05:53:33.969Z,3.10
2022-10-28T05:55:35.662Z,3.08
2022-10-28T05:57:37.493Z,2.63
2022-10-28T05:59:39.176Z,2.00
2022-10-28T06:01:40.916Z,2.55
2022-10-28T06:03:42.765Z,2.97
2022-10-28T06:05:45.333Z,2.85
2022-10-28T06:07:46.987Z,3.45
2022-10-28T06:09:50.836Z,2.58
2022-10-28T06:11:50.880Z,3.55
2022-10-28T06:13:52.620Z,3.05
2022-10-28T06:15:55.241Z,2.60
2022-10-28T06:17:56.914Z,2.65
2022-10-28T06:19:58.604Z,2.85
2022-10-28T06:22:00.228Z,2.97
2022-10-28T06:24:01.942Z,3.05
2022-10-28T06:26:04.354Z,2.88
2022-10-28T06:28:10.326Z,2.40
2022-10-28T06:30:12.530Z,2.05
2022-10-28T06:32:14.241Z,3.05
2022-10-28T06:34:15.910Z,3.22
2022-10-28T06:36:17.927Z,2.60
2022-10-28T06:38:19.577Z,2.90
2022-10-28T06:40:22.242Z,2.38
2022-10-28T06:42:23.849Z,2.00
2022-10-28T06:44:28.594Z,2.35
2022-10-28T06:46:30.566Z,2.97
2022-10-28T06:48:33.718Z,2.63
2022-10-28T06:50:38.484Z,2.83
2022-10-28T06:52:40.152Z,3.00
2022-10-28T06:54:43.615Z,2.78
2022-10-28T06:56:47.524Z,2.88
2022-10-28T06:58:53.666Z,3.22
2022-10-28T07:00:55.695Z,2.70
2022-10-28T07:02:57.658Z,3.05
2022-10-28T07:04:59.520Z,3.28
2022-10-28T07:07:01.201Z,2.50
2022-10-28T07:09:02.853Z,2.47
2022-10-28T07:11:04.714Z,3.30
2022-10-28T07:13:06.381Z,3.30
2022-10-28T07:15:08.505Z,2.55
2022-10-28T07:17:10.193Z,3.13
2022-10-28T07:19:11.804Z,3.15
2022-10-28T07:21:14.444Z,3.67
2022-10-28T07:23:16.251Z,3.03
2022-10-28T07:25:17.939Z,2.72
2022-10-28T07:27:19.810Z,2.90
2022-10-28T07:29:21.436Z,2.83
2022-10-28T07:31:27.795Z,3.08
2022-10-28T07:33:29.541Z,3.78
2022-10-28T07:35:31.705Z,2.90
2022-10-28T07:37:33.368Z,2.60
2022-10-28T07:41:37.654Z,3.40
2022-10-28T07:43:39.468Z,4.15
2022-10-28T07:45:41.719Z,2.72
2022-10-28T07:47:43.734Z,3.10
2022-10-28T07:49:45.484Z,3.00
2022-10-28T07:51:48.087Z,2.67
2022-10-28T07:53:49.803Z,2.88
2022-10-28T07:56:02.612Z,2.63
2022-10-28T07:58:04.362Z,2.90
2022-10-28T08:00:07.366Z,2.72
2022-10-28T08:02:14.642Z,2.35
2022-10-28T08:04:16.342Z,3.08
2022-10-28T08:06:19.688Z,2.38
2022-10-28T08:08:21.355Z,2.15
2022-10-28T08:10:23.051Z,2.35
2022-10-28T08:12:24.826Z,2.90
2022-10-28T08:14:26.461Z,2.25
2022-10-28T08:16:29.203Z,3.08
2022-10-28T08:18:30.971Z,2.03
2022-10-28T08:20:32.612Z,2.55
2022-10-28T08:22:34.237Z,3.25
2022-10-28T08:24:36.827Z,2.38
2022-10-28T08:26:38.786Z,2.47
2022-10-28T08:28:40.935Z,1.77
2022-10-28T08:30:57.031Z,1.85
2022-10-28T08:32:58.986Z,3.17
2022-10-28T08:35:00.691Z,2.50
2022-10-28T08:37:02.435Z,2.55
2022-10-28T08:39:04.301Z,2.20
2022-10-28T08:41:22.403Z,2.53
2022-10-28T08:43:57.772Z,3.20
2022-10-28T08:46:35.563Z,2.42
2022-10-28T08:48:37.434Z,2.95
2022-10-28T08:51:01.091Z,1.88
2022-10-28T08:53:11.706Z,1.70
2022-10-28T08:55:19.365Z,2.03
2022-10-28T08:57:26.070Z,1.92
2022-10-28T08:59:33.772Z,2.25
2022-10-28T09:02:00.207Z,1.92
2022-10-28T09:04:06.166Z,2.03
2022-10-28T09:06:09.562Z,2.28
2022-10-28T09:08:25.398Z,1.90
2022-10-28T09:10:51.647Z,1.52
2022-10-28T09:13:02.817Z,1.95
2022-10-28T09:15:20.725Z,1.85
2022-10-28T09:17:31.339Z,1.90
2022-10-28T09:19:53.967Z,1.85
2022-10-28T09:22:23.619Z,1.73
2022-10-28T09:24:54.591Z,1.85
2022-10-28T09:27:34.931Z,2.00
2022-10-28T09:29:53.270Z,1.70
2022-10-28T09:32:22.434Z,1.58
2022-10-28T09:34:43.984Z,1.73
2022-10-28T09:36:56.166Z,1.27
2022-10-28T09:39:01.976Z,1.45
2022-10-28T09:41:23.509Z,0.90
2022-10-28T09:43:34.251Z,1.58
2022-10-28T09:45:38.030Z,1.60
2022-10-28T09:47:46.356Z,1.25
2022-10-28T09:49:50.170Z,1.50
2022-10-28T09:52:13.953Z,1.92
2022-10-28T09:54:18.690Z,1.02
2022-10-28T09:56:20.398Z,1.52
2022-10-28T09:58:22.113Z,1.10
2022-10-28T10:00:23.931Z,0.93
2022-10-28T10:02:32.902Z,0.98
2022-10-28T10:04:35.991Z,0.98
2022-10-28T10:06:39.036Z,1.10
2022-10-28T10:08:41.785Z,2.05
2022-10-28T10:11:04.464Z,1.05
2022-10-28T10:13:06.372Z,1.33
2022-10-28T10:15:14.370Z,1.58
2022-10-28T10:17:22.250Z,1.27
2022-10-28T10:19:23.996Z,1.02
2022-10-28T10:21:50.875Z,1.25
2022-10-28T10:23:52.558Z,1.50
2022-10-28T10:26:08.237Z,1.17
2022-10-28T10:28:16.389Z,1.13
2022-10-28T10:30:22.871Z,1.30
2022-10-28T10:32:32.000Z,1.20
2022-10-28T10:34:33.866Z,1.30
2022-10-28T10:36:35.590Z,1.50
2022-10-28T10:38:37.849Z,1.20
2022-10-28T10:40:50.356Z,1.85
2022-10-28T10:43:12.902Z,1.08
2022-10-28T10:45:26.580Z,1.00
2022-10-28T10:47:28.503Z,1.08
2022-10-28T10:49:30.256Z,1.45
2022-10-28T10:51:31.856Z,1.45
2022-10-28T10:53:34.320Z,1.20
2022-10-28T10:55:40.160Z,1.85
2022-10-28T10:57:46.268Z,1.42
2022-10-28T10:59:49.696Z,1.13
2022-10-28T11:01:51.745Z,1.27
2022-10-28T11:04:05.081Z,2.03
2022-10-28T11:06:24.595Z,1.77
2022-10-28T11:08:44.076Z,0.90
2022-10-28T11:11:03.503Z,0.93
2022-10-28T11:13:10.583Z,0.93
2022-10-28T11:15:12.211Z,1.08
2022-10-28T11:17:24.720Z,0.73
2022-10-28T11:19:37.419Z,1.98
2022-10-28T11:21:48.158Z,1.15
2022-10-28T11:24:11.458Z,0.77
2022-10-28T11:26:14.756Z,1.00
2022-10-28T11:28:57.719Z,1.33
2022-10-28T11:31:02.350Z,1.30
2022-10-28T11:33:30.732Z,2.08
2022-10-28T11:35:43.943Z,0.95
2022-10-28T11:37:45.643Z,1.40
2022-10-28T11:40:32.398Z,0.93
2022-10-28T11:42:34.048Z,1.27
2022-10-28T11:44:44.452Z,1.30
2022-10-28T11:47:06.949Z,2.03
2022-10-28T11:49:36.019Z,1.35
2022-10-28T11:51:48.649Z,0.98
2022-10-28T11:54:15.288Z,1.15
2022-10-28T11:56:37.159Z,1.00
2022-10-28T11:59:12.787Z,1.48
2022-10-28T12:01:49.398Z,1.33
2022-10-28T12:04:03.800Z,1.05
2022-10-28T12:06:11.009Z,1.40
2022-10-28T12:08:43.243Z,1.02
2022-10-28T12:11:05.280Z,0.80
2022-10-28T12:13:15.891Z,1.05
2022-10-28T12:15:39.215Z,1.67
2022-10-28T12:17:58.352Z,1.08
2022-10-28T12:20:03.969Z,2.38
2022-10-28T12:22:14.778Z,1.20
2022-10-28T12:24:20.309Z,1.20
2022-10-28T12:26:35.502Z,1.52
2022-10-28T12:28:53.866Z,0.90
2022-10-28T12:30:56.768Z,1.58
2022-10-28T12:33:04.326Z,1.02
2022-10-28T12:35:22.750Z,1.08
2022-10-28T12:37:28.324Z,1.10
2022-10-28T12:39:41.552Z,2.15
2022-10-28T12:41:47.747Z,1.25
2022-10-28T12:43:53.401Z,0.65
2022-10-28T12:45:56.157Z,0.98
2022-10-28T12:48:06.336Z,1.00
2022-10-28T12:50:19.686Z,1.48
2022-10-28T12:52:24.369Z,0.90
2022-10-28T12:54:39.421Z,2.03
2022-10-28T12:56:50.372Z,1.00
2022-10-28T12:59:20.916Z,1.30
2022-10-28T13:01:24.671Z,1.35
2022-10-28T13:03:26.373Z,1.77
2022-10-28T13:05:38.732Z,1.25
2022-10-28T13:08:05.554Z,1.52
2022-10-28T13:10:31.785Z,1.05
2022-10-28T13:13:13.367Z,0.85
2022-10-28T13:15:34.218Z,1.23
2022-10-28T13:17:47.698Z,1.10
2022-10-28T13:19:54.944Z,1.00
2022-10-28T13:22:15.084Z,1.38
2022-10-28T13:24:40.735Z,1.35
2022-10-28T13:26:43.976Z,1.08
2022-10-28T13:28:48.172Z,1.08
2022-10-28T13:30:55.558Z,1.20
2022-10-28T13:33:06.539Z,1.13
2022-10-28T13:35:21.528Z,1.20
2022-10-28T13:37:26.196Z,1.42
2022-10-28T13:39:33.857Z,1.33
2022-10-28T13:41:37.949Z,1.20
2022-10-28T13:43:51.552Z,1.42
2022-10-28T13:45:55.559Z,0.85
2022-10-28T13:48:34.573Z,0.90
2022-10-28T13:50:37.569Z,1.02
2022-10-28T13:52:46.312Z,1.17
2022-10-28T13:54:49.349Z,1.38
2022-10-28T13:56:51.560Z,0.93
2022-10-28T13:59:03.101Z,0.80
2022-10-28T14:01:41.679Z,1.13
2022-10-28T14:03:51.630Z,1.00
2022-10-28T14:06:01.057Z,1.55
2022-10-28T14:08:05.316Z,0.82
2022-10-28T14:10:30.336Z,0.73
2022-10-28T14:12:32.901Z,1.08
2022-10-28T14:14:34.733Z,1.60
2022-10-28T14:16:39.741Z,1.27
2022-10-28T14:18:44.380Z,0.85
2022-10-28T14:20:46.884Z,1.30
2022-10-28T14:22:48.725Z,1.42
2022-10-28T14:24:50.346Z,1.70
2022-10-28T14:27:25.568Z,1.52
2022-10-28T14:29:31.587Z,1.30
2022-10-28T14:31:39.019Z,1.08
2022-10-28T14:33:46.369Z,1.10
2022-10-28T14:35:48.452Z,1.17
2022-10-28T14:38:28.501Z,1.85
2022-10-28T14:40:36.176Z,1.50
2022-10-28T14:42:55.877Z,1.15
2022-10-28T14:45:19.288Z,0.88
2022-10-28T14:47:29.843Z,1.33
2022-10-28T14:49:32.653Z,1.52
2022-10-28T14:51:42.446Z,2.03
2022-10-28T14:53:45.509Z,1.23
2022-10-28T14:55:51.516Z,1.95
2022-10-28T14:57:53.690Z,0.95
2022-10-28T14:59:56.210Z,1.08
2022-10-28T15:02:16.621Z,1.30
2022-10-28T15:04:18.502Z,1.23
2022-10-28T15:06:31.686Z,1.50
2022-10-28T15:08:33.910Z,1.17
2022-10-28T15:10:36.762Z,1.48
2022-10-28T15:12:39.959Z,0.82
2022-10-28T15:14:46.090Z,1.23
2022-10-28T15:16:48.962Z,0.93
2022-10-28T15:18:52.800Z,1.00
2022-10-28T15:21:10.912Z,1.00
2022-10-28T15:23:21.583Z,1.45
2022-10-28T15:25:23.515Z,1.20
2022-10-28T15:27:27.816Z,1.20
2022-10-28T15:29:29.568Z,1.00
2022-10-28T15:31:31.401Z,1.23
2022-10-28T15:33:37.831Z,1.05
2022-10-28T15:35:40.022Z,1.60
2022-10-28T15:37:41.655Z,1.42
2022-10-28T15:39:45.822Z,1.23
2022-10-28T15:41:53.868Z,1.70
2022-10-28T15:43:55.721Z,1.58
2022-10-28T15:46:15.509Z,1.40
2022-10-28T15:48:24.786Z,1.90
2022-10-28T15:50:32.804Z,1.92
2022-10-28T15:52:39.531Z,2.97
2022-10-28T15:54:41.398Z,2.83
2022-10-28T15:56:59.821Z,1.40
2022-10-28T15:59:07.757Z,1.98
2022-10-28T16:01:28.459Z,1.17
2022-10-28T16:03:39.565Z,1.10
2022-10-28T16:05:41.172Z,1.25
2022-10-28T16:07:45.951Z,1.35
2022-10-28T16:09:49.176Z,2.28
2022-10-28T16:11:53.013Z,2.10
2022-10-28T16:13:54.672Z,1.85
2022-10-28T16:16:29.322Z,1.13
2022-10-28T16:18:33.311Z,1.55
2022-10-28T16:20:34.979Z,1.55
2022-10-28T16:22:37.587Z,1.90
2022-10-28T16:24:39.174Z,1.88
2022-10-28T16:26:40.756Z,1.85
2022-10-28T16:28:45.223Z,3.47
2022-10-28T16:30:47.540Z,2.20
2022-10-28T16:32:50.027Z,2.00
2022-10-28T16:34:51.670Z,3.20
2022-10-28T16:36:53.250Z,1.98
2022-10-28T16:38:55.002Z,2.65
2022-10-28T16:40:57.520Z,1.95
2022-10-28T16:42:59.526Z,2.78
2022-10-28T16:45:01.154Z,3.40
2022-10-28T16:47:11.067Z,2.80
2022-10-28T16:49:12.664Z,2.10
2022-10-28T16:51:16.586Z,2.00
2022-10-28T16:53:18.893Z,2.80
2022-10-28T16:55:20.495Z,2.80
2022-10-28T16:59:24.295Z,1.88
2022-10-28T17:01:26.011Z,1.80
2022-10-28T17:03:27.648Z,1.80
2022-10-28T17:05:29.385Z,2.50
2022-10-28T17:07:34.146Z,2.45
2022-10-28T17:09:35.736Z,3.20
2022-10-28T17:11:37.351Z,1.83
2022-10-28T17:13:38.953Z,1.63
2022-10-28T17:15:41.743Z,2.47
2022-10-28T17:17:43.399Z,1.70
2022-10-28T17:19:45.804Z,1.95
2022-10-28T17:21:47.402Z,2.40
2022-10-28T17:23:49.020Z,1.67
2022-10-28T17:26:00.882Z,1.40
2022-10-28T17:28:02.526Z,1.73
2022-10-28T17:30:05.258Z,1.52
2022-10-28T17:32:08.725Z,1.58
2022-10-28T17:34:11.397Z,1.50
2022-10-28T17:36:13.009Z,1.30
2022-10-28T17:38:14.566Z,1.10
2022-10-28T17:40:16.318Z,2.10
2022-10-28T17:42:18.072Z,1.50
2022-10-28T17:44:19.801Z,1.30
2022-10-28T17:46:21.593Z,1.70
2022-10-28T17:48:23.209Z,1.30
2022-10-28T17:50:24.816Z,1.42
2022-10-28T17:52:27.739Z,1.25
2022-10-28T17:54:29.590Z,1.50
2022-10-28T17:56:31.231Z,1.92
2022-10-28T17:58:33.405Z,1.75
2022-10-28T18:00:35.172Z,1.23
2022-10-28T18:02:36.984Z,1.38
2022-10-28T18:04:38.793Z,1.77
2022-10-28T18:06:40.386Z,1.90
2022-10-28T18:08:43.274Z,1.77
2022-10-28T18:10:54.967Z,1.40
2022-10-28T18:12:56.862Z,1.58
2022-10-28T18:14:58.765Z,1.95
2022-10-28T18:17:00.401Z,1.52
2022-10-28T18:19:06.148Z,1.20
2022-10-28T18:21:08.876Z,1.85
2022-10-28T18:23:10.477Z,1.65
2022-10-28T18:25:12.094Z,1.88
2022-10-28T18:27:13.798Z,1.23
2022-10-28T18:29:15.404Z,1.85
2022-10-28T18:31:18.996Z,1.27
2022-10-28T18:33:20.648Z,1.35
2022-10-28T18:35:22.294Z,2.00
2022-10-28T18:37:23.896Z,3.13
2022-10-28T18:39:25.439Z,3.92
2022-10-28T18:41:28.720Z,3.88
2022-10-28T18:43:30.332Z,5.10
2022-10-28T18:45:31.970Z,5.07
2022-10-28T18:47:34.558Z,5.00
2022-10-28T18:49:36.170Z,4.00
2022-10-28T18:51:38.084Z,3.85
2022-10-28T18:53:42.440Z,4.72
2022-10-28T18:55:47.165Z,4.47
2022-10-28T18:57:53.076Z,5.18
2022-10-28T19:00:17.589Z,6.32
2022-10-28T19:02:21.832Z,4.03
2022-10-28T19:04:25.320Z,3.00
2022-10-28T19:06:33.131Z,2.97
2022-10-28T19:08:39.562Z,2.40
2022-10-28T19:10:43.576Z,3.92
2022-10-28T19:12:52.761Z,2.75
2022-10-28T19:14:56.613Z,2.53
2022-10-28T19:17:00.273Z,2.30
2022-10-28T19:19:04.344Z,2.35
2022-10-28T19:21:13.675Z,2.38
2022-10-28T19:23:15.321Z,3.00
2022-10-28T19:25:16.952Z,3.05
2022-10-28T19:27:18.563Z,2.38
2022-10-28T19:29:20.176Z,2.20
2022-10-28T19:31:24.479Z,2.20
2022-10-28T19:33:30.347Z,3.05
2022-10-28T19:35:33.513Z,2.35
2022-10-28T19:37:35.251Z,2.63
2022-10-28T19:39:37.064Z,2.67
2022-10-28T19:41:38.779Z,2.85
2022-10-28T19:43:40.889Z,2.30
2022-10-28T19:45:42.536Z,3.00
2022-10-28T19:47:44.185Z,2.47
2022-10-28T19:49:45.821Z,3.30
2022-10-28T19:51:47.452Z,2.60
2022-10-28T19:53:56.373Z,1.73
2022-10-28T19:55:59.922Z,2.75
2022-10-28T19:58:01.601Z,2.30
2022-10-28T20:00:04.709Z,3.28
2022-10-28T20:02:06.656Z,3.72
2022-10-28T20:04:10.075Z,3.38
2022-10-28T20:06:13.827Z,3.88
2022-10-28T20:08:17.242Z,4.07
2022-10-28T20:10:18.897Z,2.92
2022-10-28T20:12:20.578Z,2.85
2022-10-28T20:14:22.255Z,3.38
2022-10-28T20:16:25.183Z,3.35
2022-10-28T20:18:29.523Z,2.70
2022-10-28T20:20:31.251Z,4.40
2022-10-28T20:22:32.869Z,3.42
2022-10-28T20:24:34.461Z,4.85
2022-10-28T20:26:37.283Z,3.90
2022-10-28T20:28:39.513Z,4.10
2022-10-28T20:30:41.146Z,3.28
2022-10-28T20:32:42.746Z,3.70
2022-10-28T20:34:44.368Z,3.95
2022-10-28T20:36:46.137Z,3.22
2022-10-28T20:38:47.869Z,4.13
2022-10-28T20:40:50.524Z,4.18
2022-10-28T20:42:52.289Z,3.60
2022-10-28T20:44:54.003Z,5.78
2022-10-28T20:46:55.656Z,6.57
2022-10-28T20:48:57.686Z,6.03
2022-10-28T20:51:01.452Z,5.80
2022-10-28T20:53:03.032Z,5.32
2022-10-28T20:55:04.960Z,5.78
2022-10-28T20:57:06.516Z,6.47
2022-10-28T20:59:08.405Z,5.47
2022-10-28T21:01:18.855Z,5.88
2022-10-28T21:03:21.574Z,4.78
2022-10-28T21:05:23.185Z,4.28
2022-10-28T21:07:24.741Z,5.15
2022-10-28T21:09:26.423Z,5.35
2022-10-28T21:11:28.455Z,5.93
2022-10-28T21:13:30.509Z,5.40
2022-10-28T21:15:36.967Z,5.53
2022-10-28T21:17:38.650Z,6.75
2022-10-28T21:19:40.448Z,5.72
2022-10-28T21:21:42.016Z,6.32
2022-10-28T21:23:43.593Z,5.35
2022-10-28T21:25:52.954Z,5.35
2022-10-28T21:27:57.197Z,5.80
2022-10-28T21:29:58.889Z,5.22
2022-10-28T21:32:00.542Z,5.43
2022-10-28T21:34:04.506Z,5.70
2022-10-28T21:36:13.836Z,6.30
2022-10-28T21:38:17.161Z,6.18
2022-10-28T21:40:18.891Z,5.40
2022-10-28T21:42:20.537Z,7.22
2022-10-28T21:44:22.209Z,6.65
2022-10-28T21:46:24.429Z,6.65
2022-10-28T21:48:30.086Z,6.80
2022-10-28T21:50:31.784Z,5.35
2022-10-28T21:52:33.450Z,5.97
2022-10-28T21:54:35.066Z,5.95
2022-10-28T21:56:36.671Z,3.88
2022-10-28T21:58:39.315Z,4.05
2022-10-28T22:00:41.170Z,4.07
2022-10-28T22:02:42.994Z,4.22
2022-10-28T22:04:44.724Z,3.80
2022-10-28T22:08:48.842Z,3.78
2022-10-28T22:10:50.501Z,3.15
2022-10-28T22:12:52.114Z,3.65
2022-10-28T22:14:53.781Z,2.90
2022-10-28T22:16:55.460Z,3.47
2022-10-28T22:19:01.907Z,3.08
2022-10-28T22:21:18.129Z,3.25
2022-10-28T22:23:19.854Z,3.15
2022-10-28T22:25:21.477Z,2.78
2022-10-28T22:27:23.169Z,2.72
2022-10-28T22:29:24.744Z,3.33
2022-10-28T22:31:28.877Z,3.17
2022-10-28T22:33:30.542Z,3.20
2022-10-28T22:35:32.249Z,3.00
2022-10-28T22:37:33.847Z,3.03
2022-10-28T22:39:35.420Z,3.25
2022-10-28T22:41:37.026Z,2.90
2022-10-28T22:43:39.561Z,3.78
2022-10-28T22:45:41.177Z,2.92
2022-10-28T22:47:42.808Z,3.08
2022-10-28T22:49:44.448Z,4.95
2022-10-28T22:51:46.038Z,5.95
2022-10-28T22:53:47.945Z,6.35
2022-10-28T22:55:50.172Z,7.32
2022-10-28T22:57:54.196Z,6.05
2022-10-28T22:59:56.254Z,6.65
2022-10-28T23:01:58.043Z,5.70
2022-10-28T23:04:00.989Z,6.72
2022-10-28T23:06:02.670Z,6.75
2022-10-28T23:08:04.413Z,5.43
2022-10-28T23:10:06.431Z,5.78
2022-10-28T23:12:08.420Z,4.25
2022-10-28T23:14:10.075Z,4.80
2022-10-28T23:16:14.231Z,4.65
2022-10-28T23:18:15.825Z,4.32
2022-10-28T23:20:20.771Z,3.35
2022-10-28T23:22:22.390Z,3.33
2022-10-28T23:24:24.372Z,3.55
2022-10-28T23:26:27.711Z,2.88
2022-10-28T23:28:29.528Z,2.90
2022-10-28T23:30:31.327Z,3.28
2022-10-28T23:32:33.063Z,3.78
2022-10-28T23:34:34.660Z,2.78
2022-10-28T23:36:36.234Z,2.85
2022-10-28T23:38:37.843Z,3.33
2022-10-28T23:40:39.520Z,4.10
2022-10-28T23:42:41.318Z,3.30
2022-10-28T23:44:42.923Z,3.35
2022-10-28T23:46:44.789Z,3.40
2022-10-28T23:48:46.401Z,2.95
2022-10-28T23:50:48.508Z,3.17
2022-10-28T23:52:54.481Z,2.97
2022-10-28T23:54:56.278Z,2.65
2022-10-28T23:56:57.887Z,3.65
2022-10-28T23:58:59.533Z,2.95
